createdAt,value
2022-12-25T00:02:18.377Z,136.57
2022-12-25T00:04:45.052Z,165.38
2022-12-25T00:07:12.542Z,297.08
2022-12-25T00:09:39.126Z,278.08
2022-12-25T00:12:05.980Z,281.00
2022-12-25T00:14:32.573Z,277.17
2022-12-25T00:16:59.204Z,250.23
2022-12-25T00:19:25.827Z,262.35
2022-12-25T00:21:52.391Z,216.98
2022-12-25T00:24:18.965Z,279.48
2022-12-25T00:26:45.565Z,205.90
2022-12-25T00:29:13.255Z,182.77
2022-12-25T00:31:40.583Z,166.55
2022-12-25T00:34:07.315Z,170.52
2022-12-25T00:36:41.188Z,171.52
2022-12-25T00:39:08.483Z,164.95
2022-12-25T00:41:53.681Z,176.27
2022-12-25T00:44:20.303Z,149.65
2022-12-25T00:46:46.973Z,127.50
2022-12-25T00:49:13.682Z,112.65
2022-12-25T00:51:40.455Z,101.28
2022-12-25T00:54:07.552Z,99.70
2022-12-25T00:56:34.310Z,113.18
2022-12-25T00:59:00.974Z,116.40
2022-12-25T01:01:27.686Z,117.10
2022-12-25T01:03:55.363Z,126.20
2022-12-25T01:06:22.035Z,122.50
2022-12-25T01:09:07.240Z,115.30
2022-12-25T01:11:33.909Z,105.22
2022-12-25T01:14:00.607Z,106.60
2022-12-25T01:16:27.738Z,112.50
2022-12-25T01:18:54.686Z,104.70
2022-12-25T01:21:22.291Z,109.57
2022-12-25T01:23:50.586Z,119.03
2022-12-25T01:26:18.361Z,125.20
2022-12-25T01:28:45.005Z,146.73
2022-12-25T01:31:15.595Z,174.65
2022-12-25T01:33:44.244Z,157.93
2022-12-25T01:36:19.413Z,159.68
2022-12-25T01:38:46.445Z,169.82
2022-12-25T01:41:14.672Z,162.35
2022-12-25T01:44:02.408Z,166.02
2022-12-25T01:46:30.428Z,156.25
2022-12-25T01:51:54.597Z,153.00
2022-12-25T01:54:29.431Z,143.68
2022-12-25T01:56:59.883Z,158.30
2022-12-25T01:59:27.953Z,143.20
2022-12-25T02:04:38.945Z,172.07
2022-12-25T02:07:17.831Z,155.25
2022-12-25T02:09:45.167Z,161.45
2022-12-25T02:12:34.085Z,158.18
2022-12-25T02:15:06.157Z,163.65
2022-12-25T02:18:02.205Z,156.98
2022-12-25T02:20:31.936Z,140.18
2022-12-25T02:23:35.971Z,137.85
2022-12-25T02:26:05.332Z,132.45
2022-12-25T02:28:46.264Z,120.57
2022-12-25T02:31:40.054Z,112.80
2022-12-25T02:34:22.712Z,116.95
2022-12-25T02:36:57.592Z,118.63
2022-12-25T02:39:46.808Z,111.45
2022-12-25T02:42:46.044Z,105.28
2022-12-25T02:45:34.676Z,105.10
2022-12-25T02:48:21.007Z,115.40
2022-12-25T02:51:06.874Z,109.95
2022-12-25T02:53:53.614Z,92.60
2022-12-25T02:56:41.489Z,82.32
2022-12-25T02:59:26.801Z,76.50
2022-12-25T03:02:13.396Z,90.75
2022-12-25T03:05:00.737Z,96.13
2022-12-25T03:07:30.113Z,78.65
2022-12-25T03:10:21.671Z,77.97
2022-12-25T03:12:56.028Z,86.65
2022-12-25T03:15:41.954Z,79.63
2022-12-25T03:18:14.511Z,84.78
2022-12-25T03:21:00.191Z,80.63
2022-12-25T03:23:51.165Z,104.68
2022-12-25T03:26:36.961Z,117.25
2022-12-25T03:29:04.024Z,83.93
2022-12-25T03:31:30.566Z,112.93
2022-12-25T03:34:33.871Z,73.45
2022-12-25T03:37:36.210Z,90.70
2022-12-25T03:40:53.499Z,70.47
2022-12-25T03:43:38.387Z,70.50
2022-12-25T03:46:29.005Z,58.85
2022-12-25T03:49:23.756Z,62.83
2022-12-25T03:52:11.293Z,73.72
2022-12-25T03:54:59.819Z,66.63
2022-12-25T03:57:45.201Z,56.60
2022-12-25T04:00:30.822Z,53.88
2022-12-25T04:03:16.107Z,63.15
2022-12-25T04:06:01.000Z,70.03
2022-12-25T04:09:03.193Z,59.70
2022-12-25T04:11:48.540Z,58.28
2022-12-25T04:14:33.968Z,65.18
2022-12-25T04:17:39.002Z,66.93
2022-12-25T04:20:24.844Z,57.13
2022-12-25T04:23:10.211Z,45.25
2022-12-25T04:25:55.163Z,46.28
2022-12-25T04:28:39.967Z,39.78
2022-12-25T04:31:25.516Z,47.03
2022-12-25T04:34:10.838Z,51.30
2022-12-25T04:36:37.544Z,49.95
2022-12-25T04:39:04.214Z,49.40
2022-12-25T04:41:30.934Z,51.75
2022-12-25T04:43:57.762Z,47.55
2022-12-25T04:46:24.441Z,59.10
2022-12-25T04:48:51.084Z,58.88
2022-12-25T04:51:20.592Z,56.75
2022-12-25T04:53:48.819Z,48.63
2022-12-25T04:56:16.537Z,49.35
2022-12-25T04:58:44.539Z,49.08
2022-12-25T05:01:12.571Z,54.15
2022-12-25T05:06:07.324Z,51.13
2022-12-25T05:08:35.410Z,59.53
2022-12-25T05:13:32.857Z,73.07
2022-12-25T05:15:59.628Z,78.25
2022-12-25T05:18:26.384Z,85.97
2022-12-25T05:20:54.640Z,115.57
2022-12-25T05:23:22.362Z,86.70
2022-12-25T05:25:49.094Z,51.33
2022-12-25T05:28:15.947Z,51.65
2022-12-25T05:30:42.595Z,56.10
2022-12-25T05:33:09.240Z,88.75
2022-12-25T05:35:38.088Z,55.67
2022-12-25T05:38:06.012Z,52.42
2022-12-25T05:40:33.245Z,55.60
2022-12-25T05:42:59.928Z,80.40
2022-12-25T05:45:26.664Z,86.00
2022-12-25T05:47:53.469Z,71.78
2022-12-25T05:50:20.098Z,80.20
2022-12-25T05:52:46.821Z,147.10
2022-12-25T05:55:13.442Z,131.02
2022-12-25T05:57:41.230Z,100.78
2022-12-25T06:00:08.755Z,80.03
2022-12-25T06:02:37.263Z,67.25
2022-12-25T06:05:05.103Z,85.18
2022-12-25T06:07:31.797Z,106.15
2022-12-25T06:09:58.507Z,108.85
2022-12-25T06:12:25.136Z,87.90
2022-12-25T06:14:51.729Z,67.03
2022-12-25T06:17:18.395Z,51.85
2022-12-25T06:19:45.065Z,38.28
2022-12-25T06:22:11.750Z,38.72
2022-12-25T06:24:38.672Z,66.00
2022-12-25T06:27:05.306Z,85.80
2022-12-25T06:29:31.880Z,93.47
2022-12-25T06:31:59.099Z,73.40
2022-12-25T06:34:25.974Z,68.82
2022-12-25T06:36:53.177Z,65.68
2022-12-25T06:39:21.471Z,57.93
2022-12-25T06:41:48.606Z,50.45
2022-12-25T06:44:15.227Z,53.07
2022-12-25T06:46:41.836Z,61.95
2022-12-25T06:49:10.127Z,72.40
2022-12-25T06:51:36.709Z,166.90
2022-12-25T06:54:04.110Z,114.90
2022-12-25T06:56:32.121Z,104.18
2022-12-25T06:59:08.298Z,212.73
2022-12-25T07:01:48.925Z,147.75
2022-12-25T07:04:24.007Z,105.05
2022-12-25T07:06:50.712Z,150.50
2022-12-25T07:09:17.349Z,130.32
2022-12-25T07:11:43.997Z,110.30
2022-12-25T07:14:23.862Z,118.25
2022-12-25T07:16:51.027Z,140.70
2022-12-25T07:19:17.763Z,163.00
2022-12-25T07:21:44.347Z,193.20
2022-12-25T07:24:10.939Z,216.02
2022-12-25T07:26:37.575Z,189.25
2022-12-25T07:29:04.179Z,143.02
2022-12-25T07:31:30.777Z,102.55
2022-12-25T07:33:57.398Z,104.70
2022-12-25T07:36:24.112Z,113.70
2022-12-25T07:38:51.580Z,141.50
2022-12-25T07:41:18.208Z,94.68
2022-12-25T07:43:44.850Z,78.07
2022-12-25T07:46:11.856Z,65.97
2022-12-25T07:48:38.676Z,52.33
2022-12-25T07:51:07.845Z,47.33
2022-12-25T07:53:35.474Z,45.03
2022-12-25T07:56:07.766Z,72.88
2022-12-25T07:58:34.695Z,72.00
2022-12-25T08:01:07.747Z,62.47
2022-12-25T08:03:35.678Z,54.67
2022-12-25T08:06:04.959Z,48.42
2022-12-25T08:08:31.607Z,51.78
2022-12-25T08:10:58.353Z,46.15
2022-12-25T08:13:25.115Z,41.10
2022-12-25T08:15:58.561Z,38.88
2022-12-25T08:18:29.982Z,45.47
2022-12-25T08:20:57.241Z,49.78
2022-12-25T08:23:23.804Z,56.10
2022-12-25T08:25:50.384Z,86.80
2022-12-25T08:28:16.936Z,126.95
2022-12-25T08:30:43.678Z,151.90
2022-12-25T08:33:10.319Z,69.60
2022-12-25T08:35:37.216Z,38.72
2022-12-25T08:38:03.829Z,23.92
2022-12-25T08:40:30.386Z,29.83
2022-12-25T08:42:57.307Z,22.88
2022-12-25T08:45:27.403Z,28.50
2022-12-25T08:47:57.947Z,32.13
2022-12-25T08:50:24.992Z,27.50
2022-12-25T08:52:51.777Z,27.75
2022-12-25T08:55:18.453Z,23.83
2022-12-25T08:57:45.064Z,33.47
2022-12-25T09:00:12.115Z,37.83
2022-12-25T09:02:38.913Z,26.05
2022-12-25T09:05:06.204Z,20.75
2022-12-25T09:07:32.776Z,26.52
2022-12-25T09:09:59.383Z,38.28
2022-12-25T09:12:26.026Z,36.58
2022-12-25T09:14:52.684Z,25.58
2022-12-25T09:17:22.071Z,36.08
2022-12-25T09:19:48.668Z,29.13
2022-12-25T09:22:15.318Z,21.50
2022-12-25T09:24:43.692Z,15.23
2022-12-25T09:27:10.299Z,19.00
2022-12-25T09:29:36.926Z,16.90
2022-12-25T09:32:03.682Z,18.90
2022-12-25T09:34:30.342Z,20.48
2022-12-25T09:36:57.087Z,19.88
2022-12-25T09:39:24.823Z,18.88
2022-12-25T09:42:04.434Z,23.05
2022-12-25T09:44:55.417Z,17.60
2022-12-25T09:47:37.085Z,17.55
2022-12-25T09:50:12.755Z,16.33
2022-12-25T09:52:48.622Z,12.68
2022-12-25T09:55:24.374Z,13.55
2022-12-25T09:58:00.597Z,13.38
2022-12-25T10:00:40.720Z,11.77
2022-12-25T10:03:13.563Z,9.00
2022-12-25T10:05:55.451Z,8.48
2022-12-25T10:08:27.892Z,23.52
2022-12-25T10:11:00.516Z,13.98
2022-12-25T10:13:45.463Z,10.50
2022-12-25T10:16:21.085Z,26.58
2022-12-25T10:18:47.727Z,10.85
2022-12-25T10:21:18.335Z,10.70
2022-12-25T10:23:53.643Z,9.57
2022-12-25T10:26:22.686Z,6.45
2022-12-25T10:29:04.580Z,9.70
2022-12-25T10:31:36.186Z,8.93
2022-12-25T10:34:04.536Z,5.90
2022-12-25T10:36:31.936Z,10.70
2022-12-25T10:38:58.562Z,8.18
2022-12-25T10:42:04.241Z,6.75
2022-12-25T10:44:32.381Z,9.23
2022-12-25T10:49:46.768Z,7.35
2022-12-25T10:52:21.258Z,8.90
2022-12-25T10:54:48.006Z,10.63
2022-12-25T10:57:18.008Z,8.50
2022-12-25T10:59:48.839Z,11.48
2022-12-25T11:02:36.304Z,9.45
2022-12-25T11:05:29.612Z,7.97
2022-12-25T11:07:57.077Z,14.95
2022-12-25T11:10:32.876Z,26.10
2022-12-25T11:13:00.958Z,9.30
2022-12-25T11:15:43.353Z,8.25
2022-12-25T11:18:49.280Z,11.73
2022-12-25T11:21:26.269Z,8.80
2022-12-25T11:24:00.735Z,5.82
2022-12-25T11:26:30.281Z,8.40
2022-12-25T11:28:58.204Z,10.82
2022-12-25T11:31:40.781Z,8.48
2022-12-25T11:34:17.707Z,9.05
2022-12-25T11:36:47.195Z,10.98
2022-12-25T11:39:29.458Z,8.52
2022-12-25T11:42:26.483Z,5.70
2022-12-25T11:45:08.845Z,13.25
2022-12-25T11:48:26.293Z,10.85
2022-12-25T11:50:59.302Z,9.90
2022-12-25T11:53:35.063Z,7.50
2022-12-25T11:56:06.738Z,7.07
2022-12-25T11:58:39.142Z,9.27
2022-12-25T12:01:17.349Z,8.95
2022-12-25T12:03:44.969Z,7.57
2022-12-25T12:06:47.874Z,7.97
2022-12-25T12:09:44.185Z,6.72
2022-12-25T12:12:16.602Z,5.95
2022-12-25T12:15:08.473Z,7.38
2022-12-25T12:17:35.335Z,5.50
2022-12-25T12:20:28.746Z,8.77
2022-12-25T12:22:56.180Z,8.98
2022-12-25T12:25:23.051Z,9.75
2022-12-25T12:28:21.738Z,9.38
2022-12-25T12:31:06.999Z,10.63
2022-12-25T12:33:39.486Z,13.95
2022-12-25T12:36:09.950Z,8.25
2022-12-25T12:38:37.200Z,12.35
2022-12-25T12:41:07.161Z,9.25
2022-12-25T12:43:44.947Z,14.70
2022-12-25T12:46:24.493Z,17.25
2022-12-25T12:49:21.210Z,10.00
2022-12-25T12:51:49.287Z,8.68
2022-12-25T12:54:26.153Z,7.53
2022-12-25T12:56:55.816Z,9.07
2022-12-25T12:59:23.500Z,5.88
2022-12-25T13:02:18.862Z,10.65
2022-12-25T13:05:05.929Z,7.00
2022-12-25T13:07:53.799Z,8.15
2022-12-25T13:10:36.612Z,11.35
2022-12-25T13:13:12.731Z,11.75
2022-12-25T13:15:39.571Z,5.32
2022-12-25T13:18:10.880Z,8.52
2022-12-25T13:20:47.131Z,10.30
2022-12-25T13:23:35.122Z,9.27
2022-12-25T13:26:14.863Z,7.72
2022-12-25T13:28:41.719Z,7.22
2022-12-25T13:31:18.839Z,8.57
2022-12-25T13:33:58.078Z,6.97
2022-12-25T13:36:26.841Z,6.95
2022-12-25T13:38:57.951Z,5.60
2022-12-25T13:41:46.232Z,8.60
2022-12-25T13:44:20.801Z,11.45
2022-12-25T13:46:48.217Z,12.45
2022-12-25T13:49:20.613Z,14.57
2022-12-25T13:51:48.684Z,12.05
2022-12-25T13:54:17.409Z,13.60
2022-12-25T13:56:50.425Z,10.93
2022-12-25T13:59:21.269Z,9.82
2022-12-25T14:01:49.637Z,7.90
2022-12-25T14:04:20.138Z,9.27
2022-12-25T14:06:48.086Z,16.73
2022-12-25T14:09:15.913Z,13.15
2022-12-25T14:11:48.958Z,5.00
2022-12-25T14:14:22.083Z,4.47
2022-12-25T14:16:51.646Z,10.73
2022-12-25T14:19:33.464Z,10.13
2022-12-25T14:22:17.209Z,5.82
2022-12-25T14:24:44.074Z,13.32
2022-12-25T14:27:32.528Z,9.32
2022-12-25T14:30:00.725Z,14.82
2022-12-25T14:34:59.627Z,19.83
2022-12-25T14:37:30.900Z,31.85
2022-12-25T14:40:05.144Z,23.15
2022-12-25T14:42:36.045Z,31.67
2022-12-25T14:45:25.573Z,27.35
2022-12-25T14:50:30.724Z,32.35
2022-12-25T14:52:59.022Z,47.53
2022-12-25T14:55:28.694Z,58.28
2022-12-25T14:58:04.984Z,98.38
2022-12-25T15:00:39.834Z,54.40
2022-12-25T15:03:27.111Z,62.67
2022-12-25T15:06:19.524Z,63.10
2022-12-25T15:09:16.697Z,86.45
2022-12-25T15:11:43.595Z,85.88
2022-12-25T15:14:10.233Z,107.00
2022-12-25T15:16:50.929Z,115.70
2022-12-25T15:19:27.261Z,116.70
2022-12-25T15:21:54.556Z,114.28
2022-12-25T15:24:22.338Z,116.75
2022-12-25T15:26:48.978Z,106.30
2022-12-25T15:29:38.172Z,92.03
2022-12-25T15:32:21.318Z,92.95
2022-12-25T15:34:50.145Z,88.32
2022-12-25T15:37:18.998Z,76.25
2022-12-25T15:39:46.414Z,75.22
2022-12-25T15:42:15.388Z,36.17
2022-12-25T15:44:45.278Z,42.15
2022-12-25T15:47:14.682Z,40.92
2022-12-25T15:49:44.342Z,45.15
2022-12-25T15:52:14.348Z,56.70
2022-12-25T15:54:41.062Z,79.55
2022-12-25T15:57:19.613Z,79.03
2022-12-25T15:59:46.887Z,79.88
2022-12-25T16:02:17.689Z,96.63
2022-12-25T16:04:44.819Z,107.40
2022-12-25T16:07:19.748Z,132.68
2022-12-25T16:09:46.802Z,166.25
2022-12-25T16:12:13.503Z,191.90
2022-12-25T16:14:40.214Z,136.13
2022-12-25T16:17:07.445Z,84.00
2022-12-25T16:19:34.330Z,42.60
2022-12-25T16:22:01.000Z,103.13
2022-12-25T16:24:28.645Z,110.05
2022-12-25T16:26:55.277Z,91.80
2022-12-25T16:29:21.884Z,87.10
2022-12-25T16:31:48.565Z,63.03
2022-12-25T16:34:15.293Z,90.97
2022-12-25T16:36:41.896Z,96.65
2022-12-25T16:39:08.569Z,115.15
2022-12-25T16:41:35.205Z,115.03
2022-12-25T16:44:09.489Z,147.60
2022-12-25T16:46:37.624Z,111.80
2022-12-25T16:51:31.419Z,149.82
2022-12-25T16:53:58.561Z,94.82
2022-12-25T16:56:27.108Z,57.63
2022-12-25T16:58:55.007Z,52.63
2022-12-25T17:01:23.071Z,44.45
2022-12-25T17:06:28.309Z,71.13
2022-12-25T17:08:58.868Z,79.28
2022-12-25T17:11:29.857Z,147.52
2022-12-25T17:13:58.786Z,153.48
2022-12-25T17:16:28.170Z,130.50
2022-12-25T17:19:01.450Z,156.73
2022-12-25T17:21:28.995Z,145.93
2022-12-25T17:24:01.706Z,145.98
2022-12-25T17:26:30.862Z,142.93
2022-12-25T17:28:57.552Z,143.05
2022-12-25T17:31:24.508Z,108.47
2022-12-25T17:33:51.181Z,106.80
2022-12-25T17:36:20.190Z,33.40
2022-12-25T17:38:47.731Z,41.00
2022-12-25T17:41:16.654Z,32.70
2022-12-25T17:43:45.708Z,43.08
2022-12-25T17:46:23.810Z,30.05
2022-12-25T17:48:51.884Z,30.97
2022-12-25T17:51:21.920Z,39.33
2022-12-25T17:53:52.446Z,50.60
2022-12-25T17:56:20.773Z,60.38
2022-12-25T17:58:58.507Z,61.15
2022-12-25T18:01:27.014Z,74.45
2022-12-25T18:03:54.577Z,78.47
2022-12-25T18:06:24.443Z,88.35
2022-12-25T18:08:51.148Z,107.18
2022-12-25T18:11:20.640Z,158.55
2022-12-25T18:13:51.221Z,158.57
2022-12-25T18:16:19.570Z,169.07
2022-12-25T18:18:51.719Z,159.05
2022-12-25T18:21:20.547Z,188.38
2022-12-25T18:23:47.844Z,193.45
2022-12-25T18:26:14.942Z,191.47
2022-12-25T18:28:42.668Z,197.55
2022-12-25T18:31:21.895Z,194.70
2022-12-25T18:33:49.754Z,181.52
2022-12-25T18:36:20.326Z,180.88
2022-12-25T18:38:48.331Z,182.77
2022-12-25T18:41:15.275Z,165.07
2022-12-25T18:43:54.283Z,168.43
2022-12-25T18:46:26.702Z,138.75
2022-12-25T18:48:55.091Z,118.18
2022-12-25T18:53:48.878Z,138.40
2022-12-25T18:56:17.602Z,148.73
2022-12-25T18:58:44.719Z,140.27
2022-12-25T19:01:11.646Z,133.77
2022-12-25T19:03:38.373Z,141.48
2022-12-25T19:06:05.100Z,137.77
2022-12-25T19:08:31.807Z,155.77
2022-12-25T19:10:58.421Z,160.80
2022-12-25T19:13:25.080Z,112.63
2022-12-25T19:15:52.546Z,97.57
2022-12-25T19:18:19.193Z,105.45
2022-12-25T19:20:45.797Z,124.53
2022-12-25T19:23:12.518Z,153.73
2022-12-25T19:25:40.482Z,197.20
2022-12-25T19:28:07.053Z,195.20
2022-12-25T19:30:33.858Z,218.25
2022-12-25T19:33:00.668Z,198.25
2022-12-25T19:35:27.332Z,176.98
2022-12-25T19:37:53.982Z,152.45
2022-12-25T19:40:20.704Z,199.85
2022-12-25T19:42:47.297Z,209.88
2022-12-25T19:45:13.952Z,241.80
2022-12-25T19:47:44.257Z,241.50
2022-12-25T19:50:11.057Z,253.30
2022-12-25T19:52:37.726Z,254.93
2022-12-25T19:55:04.661Z,270.35
2022-12-25T19:57:31.296Z,247.35
2022-12-25T19:59:59.005Z,211.30
2022-12-25T20:02:25.913Z,181.00
2022-12-25T20:04:52.660Z,164.60
2022-12-25T20:07:19.373Z,230.93
2022-12-25T20:09:46.094Z,207.30
2022-12-25T20:12:15.018Z,208.60
2022-12-25T20:14:41.765Z,187.00
2022-12-25T20:17:13.689Z,174.57
2022-12-25T20:19:42.286Z,185.02
2022-12-25T20:22:08.899Z,183.95
2022-12-25T20:24:35.993Z,164.48
2022-12-25T20:27:03.208Z,156.48
2022-12-25T20:29:30.113Z,144.67
2022-12-25T20:31:56.795Z,152.25
2022-12-25T20:34:23.501Z,137.70
2022-12-25T20:36:50.226Z,156.57
2022-12-25T20:39:17.038Z,155.10
2022-12-25T20:41:43.715Z,156.40
2022-12-25T20:44:15.601Z,170.27
2022-12-25T20:46:42.751Z,136.48
2022-12-25T20:49:09.481Z,119.27
2022-12-25T20:51:36.154Z,99.63
2022-12-25T20:54:07.628Z,87.78
2022-12-25T20:56:35.302Z,69.45
2022-12-25T20:59:02.264Z,56.08
2022-12-25T21:01:30.656Z,34.70
2022-12-25T21:03:58.587Z,23.77
2022-12-25T21:06:25.260Z,41.60
2022-12-25T21:08:51.930Z,48.17
2022-12-25T21:11:18.629Z,30.60
2022-12-25T21:13:46.299Z,26.50
2022-12-25T21:16:19.062Z,24.13
2022-12-25T21:18:46.847Z,28.35
2022-12-25T21:21:14.015Z,78.40
2022-12-25T21:23:41.263Z,80.50
2022-12-25T21:26:19.096Z,95.63
2022-12-25T21:28:47.681Z,281.40
2022-12-25T21:31:14.624Z,186.90
2022-12-25T21:33:53.785Z,161.40
2022-12-25T21:36:27.295Z,99.22
2022-12-25T21:39:06.470Z,239.88
2022-12-25T21:41:35.028Z,150.23
2022-12-25T21:44:02.011Z,122.05
2022-12-25T21:46:29.429Z,130.80
2022-12-25T21:48:57.045Z,88.47
2022-12-25T21:51:45.339Z,75.28
2022-12-25T21:54:13.411Z,68.28
2022-12-25T21:59:15.853Z,42.05
2022-12-25T22:01:42.943Z,56.03
2022-12-25T22:04:10.059Z,104.47
2022-12-25T22:06:55.290Z,120.15
2022-12-25T22:09:22.728Z,70.32
2022-12-25T22:12:07.933Z,47.65
2022-12-25T22:14:57.357Z,50.30
2022-12-25T22:17:45.658Z,46.25
2022-12-25T22:20:16.188Z,56.28
2022-12-25T22:22:43.484Z,72.03
2022-12-25T22:25:11.015Z,84.05
2022-12-25T22:27:39.194Z,82.53
2022-12-25T22:32:34.923Z,87.03
2022-12-25T22:35:01.803Z,89.20
2022-12-25T22:37:28.629Z,78.28
2022-12-25T22:39:55.407Z,73.25
2022-12-25T22:42:22.399Z,72.20
2022-12-25T22:44:49.283Z,79.25
2022-12-25T22:47:15.901Z,92.75
2022-12-25T22:49:42.479Z,112.78
2022-12-25T22:52:09.950Z,118.70
2022-12-25T22:54:36.686Z,97.35
2022-12-25T22:57:04.100Z,86.00
2022-12-25T22:59:32.845Z,63.50
2022-12-25T23:02:00.872Z,46.75
2022-12-25T23:04:28.566Z,43.03
2022-12-25T23:06:55.624Z,43.30
2022-12-25T23:09:27.696Z,37.47
2022-12-25T23:11:56.485Z,41.47
2022-12-25T23:14:39.910Z,46.88
2022-12-25T23:17:32.683Z,56.35
2022-12-25T23:20:19.125Z,69.47
2022-12-25T23:23:04.875Z,62.95
2022-12-25T23:25:49.993Z,58.47
2022-12-25T23:28:36.651Z,53.08
2022-12-25T23:31:03.492Z,58.63
2022-12-25T23:33:30.507Z,68.63
2022-12-25T23:35:57.152Z,86.88
2022-12-25T23:38:23.735Z,103.50
2022-12-25T23:40:50.338Z,107.50
2022-12-25T23:43:17.073Z,90.75
2022-12-25T23:45:43.701Z,95.72
2022-12-25T23:48:10.318Z,80.55
2022-12-25T23:50:37.178Z,74.15
2022-12-25T23:53:03.816Z,61.58
2022-12-25T23:55:30.475Z,43.35
2022-12-25T23:57:57.122Z,48.88
